createdAt,value
2019-06-23T00:00:10.860Z,18.98
2019-06-23T00:02:40.380Z,18.99
2019-06-23T00:05:10.034Z,18.98
2019-06-23T00:07:39.562Z,19.05
2019-06-23T00:10:09.509Z,19.13
2019-06-23T00:12:39.113Z,19.01
2019-06-23T00:15:11.794Z,19.03
2019-06-23T00:17:40.472Z,19.02
2019-06-23T00:20:10.287Z,18.97
2019-06-23T00:22:39.825Z,18.98
2019-06-23T00:25:09.465Z,18.98
2019-06-23T00:27:38.973Z,18.92
2019-06-23T00:30:10.710Z,18.96
2019-06-23T00:32:40.278Z,19.02
2019-06-23T00:35:10.028Z,18.97
2019-06-23T00:37:39.536Z,18.93
2019-06-23T00:40:10.170Z,18.96
2019-06-23T00:42:39.748Z,18.99
2019-06-23T00:45:09.420Z,18.97
2019-06-23T00:47:38.926Z,19.02
2019-06-23T00:50:08.994Z,18.98
2019-06-23T00:52:38.508Z,18.94
2019-06-23T00:55:09.004Z,18.98
2019-06-23T00:57:38.510Z,18.96
2019-06-23T01:00:08.753Z,19.01
2019-06-23T01:02:45.670Z,18.97
2019-06-23T01:05:15.267Z,18.73
2019-06-23T01:07:44.778Z,19.01
2019-06-23T01:10:16.317Z,18.98
2019-06-23T01:12:45.829Z,18.93
2019-06-23T01:15:16.004Z,18.92
2019-06-23T01:17:45.673Z,18.99
2019-06-23T01:20:17.346Z,19.02
2019-06-23T01:22:46.856Z,19.04
2019-06-23T01:25:16.519Z,18.99
2019-06-23T01:27:46.026Z,18.97
2019-06-23T01:30:16.371Z,18.97
2019-06-23T01:32:45.883Z,19.00
2019-06-23T01:35:15.480Z,19.02
2019-06-23T01:37:44.994Z,19.02
2019-06-23T01:40:14.845Z,19.12
2019-06-23T01:42:44.349Z,19.12
2019-06-23T01:45:15.287Z,19.12
2019-06-23T01:47:44.800Z,19.18
2019-06-23T01:50:14.499Z,19.20
2019-06-23T01:52:44.010Z,19.21
2019-06-23T01:55:13.745Z,19.18
2019-06-23T01:57:43.264Z,19.11
2019-06-23T02:00:13.173Z,19.07
2019-06-23T02:02:42.732Z,19.11
2019-06-23T02:05:12.404Z,19.20
2019-06-23T02:07:41.984Z,19.21
2019-06-23T02:10:11.951Z,19.18
2019-06-23T02:12:41.510Z,19.25
2019-06-23T02:15:11.669Z,19.20
2019-06-23T02:17:41.575Z,19.15
2019-06-23T02:20:13.535Z,19.13
2019-06-23T02:22:44.680Z,19.14
2019-06-23T02:25:14.462Z,19.18
2019-06-23T02:27:43.974Z,19.18
2019-06-23T02:30:15.524Z,19.12
2019-06-23T02:32:45.097Z,19.14
2019-06-23T02:35:14.867Z,19.14
2019-06-23T02:37:44.369Z,19.13
2019-06-23T02:40:14.139Z,19.16
2019-06-23T02:42:43.651Z,19.16
2019-06-23T02:45:13.601Z,19.18
2019-06-23T02:47:56.655Z,19.15
2019-06-23T02:50:26.022Z,19.06
2019-06-23T02:52:57.177Z,19.07
2019-06-23T02:55:29.206Z,19.14
2019-06-23T02:58:05.825Z,19.18
2019-06-23T03:00:39.781Z,19.15
2019-06-23T03:03:09.288Z,19.17
2019-06-23T03:05:38.836Z,19.16
2019-06-23T03:08:08.344Z,19.13
2019-06-23T03:10:37.950Z,19.11
2019-06-23T03:13:07.464Z,19.10
2019-06-23T03:15:36.995Z,19.08
2019-06-23T03:18:06.570Z,19.04
2019-06-23T03:20:36.105Z,19.10
2019-06-23T03:23:05.685Z,19.14
2019-06-23T03:26:00.649Z,19.12
2019-06-23T03:28:30.158Z,19.12
2019-06-23T03:30:59.877Z,19.05
2019-06-23T03:33:30.252Z,19.13
2019-06-23T03:35:59.919Z,19.16
2019-06-23T03:38:29.967Z,19.05
2019-06-23T03:41:01.240Z,19.01
2019-06-23T03:43:31.288Z,19.01
2019-06-23T03:46:00.824Z,19.04
2019-06-23T03:48:30.339Z,19.03
2019-06-23T03:50:59.864Z,18.85
2019-06-23T03:53:29.371Z,19.00
2019-06-23T03:55:58.976Z,19.00
2019-06-23T03:58:28.826Z,18.99
2019-06-23T04:00:58.362Z,19.07
2019-06-23T04:03:27.940Z,18.98
2019-06-23T04:05:57.474Z,19.08
2019-06-23T04:08:27.038Z,19.15
2019-06-23T04:10:56.598Z,19.16
2019-06-23T04:13:26.103Z,19.19
2019-06-23T04:15:55.645Z,19.22
2019-06-23T04:18:25.161Z,19.23
2019-06-23T04:20:54.739Z,19.19
2019-06-23T04:23:24.292Z,19.17
2019-06-23T04:25:54.181Z,19.23
2019-06-23T04:28:23.697Z,19.28
2019-06-23T04:30:53.377Z,19.26
2019-06-23T04:33:22.928Z,19.29
2019-06-23T04:36:06.381Z,19.25
2019-06-23T04:38:23.697Z,19.31
2019-06-23T04:40:53.247Z,19.25
2019-06-23T04:43:22.759Z,19.30
2019-06-23T04:45:52.274Z,19.27
2019-06-23T04:48:21.804Z,19.29
2019-06-23T04:50:51.318Z,19.25
2019-06-23T04:53:20.853Z,19.23
2019-06-23T04:55:50.365Z,19.20
2019-06-23T04:58:22.841Z,19.22
2019-06-23T05:00:52.360Z,19.21
2019-06-23T05:03:21.900Z,19.17
2019-06-23T05:05:51.482Z,19.15
2019-06-23T05:08:21.017Z,19.16
2019-06-23T05:10:50.897Z,19.21
2019-06-23T05:13:20.421Z,19.20
2019-06-23T05:15:49.927Z,19.21
2019-06-23T05:18:19.524Z,19.23
2019-06-23T05:20:49.351Z,19.30
2019-06-23T05:23:18.914Z,19.32
2019-06-23T05:25:48.413Z,19.34
2019-06-23T05:28:20.373Z,19.34
2019-06-23T05:30:49.877Z,19.36
2019-06-23T05:33:19.413Z,19.34
2019-06-23T05:35:48.921Z,19.37
2019-06-23T05:38:18.524Z,19.31
2019-06-23T05:40:48.032Z,19.39
2019-06-23T05:43:17.587Z,19.40
2019-06-23T05:45:47.116Z,19.43
2019-06-23T05:48:17.884Z,19.48
2019-06-23T05:50:47.429Z,19.48
2019-06-23T05:53:16.981Z,19.48
2019-06-23T05:55:48.752Z,19.52
2019-06-23T05:58:19.382Z,19.50
2019-06-23T06:00:49.031Z,19.51
2019-06-23T06:03:18.562Z,19.48
2019-06-23T06:05:48.077Z,19.54
2019-06-23T06:08:18.930Z,19.55
2019-06-23T06:10:48.506Z,19.49
2019-06-23T06:13:18.048Z,19.52
2019-06-23T06:15:47.689Z,19.52
2019-06-23T06:18:17.269Z,19.51
2019-06-23T06:20:46.782Z,19.54
2019-06-23T06:23:16.319Z,19.57
2019-06-23T06:25:45.828Z,19.60
2019-06-23T06:28:15.368Z,19.72
2019-06-23T06:30:44.946Z,19.74
2019-06-23T06:33:14.546Z,19.70
2019-06-23T06:35:44.055Z,19.72
2019-06-23T06:38:13.597Z,19.71
2019-06-23T06:40:43.089Z,19.69
2019-06-23T06:43:12.820Z,19.72
2019-06-23T06:45:42.907Z,19.69
2019-06-23T06:48:12.449Z,19.70
2019-06-23T06:50:42.133Z,19.74
2019-06-23T06:53:11.679Z,19.73
2019-06-23T06:55:41.238Z,19.78
2019-06-23T06:58:10.778Z,19.83
2019-06-23T07:00:40.420Z,19.84
2019-06-23T07:03:09.968Z,19.85
2019-06-23T07:05:39.486Z,19.90
2019-06-23T07:08:09.022Z,19.88
2019-06-23T07:10:38.524Z,19.95
2019-06-23T07:13:08.067Z,19.96
2019-06-23T07:15:37.590Z,19.99
2019-06-23T07:18:07.111Z,19.97
2019-06-23T07:20:37.166Z,19.99
2019-06-23T07:23:06.678Z,20.08
2019-06-23T07:25:36.211Z,20.09
2019-06-23T07:28:05.795Z,20.11
2019-06-23T07:30:40.041Z,20.21
2019-06-23T07:33:09.549Z,20.19
2019-06-23T07:35:39.079Z,20.23
2019-06-23T07:38:08.595Z,20.25
2019-06-23T07:40:38.139Z,20.28
2019-06-23T07:43:07.647Z,20.28
2019-06-23T07:45:37.173Z,20.30
2019-06-23T07:48:06.701Z,20.33
2019-06-23T07:50:36.580Z,20.35
2019-06-23T07:53:06.083Z,20.31
2019-06-23T07:55:35.648Z,20.30
2019-06-23T07:58:05.160Z,20.30
2019-06-23T08:00:34.694Z,20.34
2019-06-23T08:03:05.019Z,20.33
2019-06-23T08:05:34.559Z,20.36
2019-06-23T08:08:04.067Z,20.38
2019-06-23T08:10:33.598Z,20.39
2019-06-23T08:13:03.129Z,20.41
2019-06-23T08:15:32.764Z,20.35
2019-06-23T08:18:02.526Z,20.41
2019-06-23T08:20:32.040Z,20.45
2019-06-23T08:23:01.750Z,20.42
2019-06-23T08:25:31.269Z,20.42
2019-06-23T08:28:01.070Z,20.50
2019-06-23T08:30:30.652Z,20.56
2019-06-23T08:33:00.740Z,20.56
2019-06-23T08:35:30.283Z,20.55
2019-06-23T08:38:14.525Z,20.66
2019-06-23T08:40:31.394Z,20.76
2019-06-23T08:43:00.909Z,20.74
2019-06-23T08:45:30.984Z,20.75
2019-06-23T08:48:00.743Z,20.86
2019-06-23T08:50:30.506Z,21.01
2019-06-23T08:53:00.332Z,21.13
2019-06-23T08:55:29.916Z,21.09
2019-06-23T08:57:59.465Z,20.99
2019-06-23T09:00:29.060Z,20.96
2019-06-23T09:02:58.646Z,21.02
2019-06-23T09:05:28.241Z,21.09
2019-06-23T09:07:57.756Z,21.11
2019-06-23T09:10:27.367Z,21.16
2019-06-23T09:12:56.878Z,21.26
2019-06-23T09:15:26.482Z,21.25
2019-06-23T09:17:56.100Z,21.38
2019-06-23T09:20:25.696Z,21.47
2019-06-23T09:22:55.282Z,21.48
2019-06-23T09:25:24.892Z,21.45
2019-06-23T09:27:55.897Z,21.43
2019-06-23T09:30:46.780Z,21.45
2019-06-23T09:33:16.296Z,21.48
2019-06-23T09:35:45.900Z,21.55
2019-06-23T09:38:15.417Z,21.58
2019-06-23T09:40:44.957Z,21.61
2019-06-23T09:43:14.467Z,21.62
2019-06-23T09:45:44.447Z,21.63
2019-06-23T09:48:14.237Z,21.64
2019-06-23T09:50:43.776Z,21.70
2019-06-23T09:53:13.357Z,21.75
2019-06-23T09:55:43.171Z,21.71
2019-06-23T09:58:12.736Z,21.72
2019-06-23T10:00:42.292Z,21.79
2019-06-23T10:03:11.864Z,21.79
2019-06-23T10:05:41.388Z,21.76
2019-06-23T10:08:10.965Z,21.81
2019-06-23T10:10:40.576Z,21.88
2019-06-23T10:13:10.156Z,21.84
2019-06-23T10:15:39.691Z,21.87
2019-06-23T10:18:09.214Z,21.86
2019-06-23T10:20:38.755Z,21.84
2019-06-23T10:23:08.273Z,21.84
2019-06-23T10:25:37.814Z,21.86
2019-06-23T10:28:07.333Z,21.92
2019-06-23T10:30:36.875Z,21.89
2019-06-23T10:33:06.461Z,21.92
2019-06-23T10:35:36.057Z,22.01
2019-06-23T10:38:05.636Z,22.11
2019-06-23T10:40:35.181Z,22.09
2019-06-23T10:43:04.817Z,22.07
2019-06-23T10:45:34.363Z,22.04
2019-06-23T10:48:04.025Z,22.03
2019-06-23T10:50:33.565Z,22.00
2019-06-23T10:53:03.149Z,22.03
2019-06-23T10:55:32.687Z,22.10
2019-06-23T10:58:02.382Z,22.10
2019-06-23T11:00:31.899Z,22.10
2019-06-23T11:03:01.527Z,22.10
2019-06-23T11:05:31.203Z,22.08
2019-06-23T11:08:00.742Z,22.03
2019-06-23T11:10:30.264Z,22.03
2019-06-23T11:12:59.791Z,22.04
2019-06-23T11:15:29.322Z,22.05
2019-06-23T11:17:58.859Z,22.10
2019-06-23T11:20:28.369Z,22.14
2019-06-23T11:22:57.905Z,22.13
2019-06-23T11:25:27.414Z,22.13
2019-06-23T11:27:56.997Z,22.13
2019-06-23T11:30:26.546Z,22.13
2019-06-23T11:32:56.107Z,22.20
2019-06-23T11:35:25.687Z,22.38
2019-06-23T11:37:55.233Z,22.46
2019-06-23T11:40:24.808Z,22.50
2019-06-23T11:42:54.429Z,22.52
2019-06-23T11:45:24.027Z,22.60
2019-06-23T11:47:53.564Z,22.77
2019-06-23T11:50:23.143Z,22.82
2019-06-23T11:52:52.673Z,22.90
2019-06-23T11:55:22.187Z,22.98
2019-06-23T11:57:51.721Z,23.05
2019-06-23T12:00:21.644Z,23.19
2019-06-23T12:02:51.359Z,23.46
2019-06-23T12:05:20.964Z,23.95
2019-06-23T12:07:50.512Z,24.78
2019-06-23T12:10:20.097Z,25.92
2019-06-23T12:12:50.442Z,27.04
2019-06-23T12:15:20.690Z,28.12
2019-06-23T12:17:50.329Z,28.25
2019-06-23T12:20:19.923Z,29.53
2019-06-23T12:22:49.457Z,31.88
2019-06-23T12:25:18.967Z,31.58
2019-06-23T12:27:48.508Z,31.77
2019-06-23T12:30:18.460Z,32.10
2019-06-23T12:32:47.980Z,32.94
2019-06-23T12:35:17.501Z,34.36
2019-06-23T12:37:47.033Z,33.72
2019-06-23T12:40:24.415Z,34.01
2019-06-23T12:42:47.940Z,34.47
2019-06-23T12:45:17.590Z,37.36
2019-06-23T12:47:47.128Z,35.96
2019-06-23T12:50:16.980Z,35.61
2019-06-23T12:52:46.515Z,35.65
2019-06-23T12:55:16.162Z,35.67
2019-06-23T12:57:45.873Z,35.33
2019-06-23T13:00:16.134Z,35.84
2019-06-23T13:02:45.740Z,36.59
2019-06-23T13:05:15.595Z,38.32
2019-06-23T13:07:45.226Z,36.79
2019-06-23T13:10:16.689Z,36.76
2019-06-23T13:12:46.312Z,35.96
2019-06-23T13:15:16.348Z,35.51
2019-06-23T13:17:45.940Z,34.91
2019-06-23T13:20:15.525Z,33.67
2019-06-23T13:22:45.239Z,32.29
2019-06-23T13:25:14.872Z,31.95
2019-06-23T13:27:44.478Z,32.38
2019-06-23T13:30:14.593Z,31.18
2019-06-23T13:32:44.102Z,31.84
2019-06-23T13:35:14.244Z,31.13
2019-06-23T13:37:43.762Z,30.16
2019-06-23T13:40:13.980Z,29.80
2019-06-23T13:42:43.498Z,29.35
2019-06-23T13:45:14.113Z,29.52
2019-06-23T13:47:43.729Z,29.70
2019-06-23T13:50:14.193Z,29.45
2019-06-23T13:52:43.778Z,29.11
2019-06-23T13:55:13.546Z,29.02
2019-06-23T13:57:43.059Z,28.70
2019-06-23T14:00:13.398Z,28.63
2019-06-23T14:02:43.848Z,28.65
2019-06-23T14:05:13.981Z,28.62
2019-06-23T14:07:43.489Z,28.53
2019-06-23T14:10:13.628Z,28.54
2019-06-23T14:12:43.148Z,28.39
2019-06-23T14:15:13.703Z,28.33
2019-06-23T14:17:43.211Z,28.21
2019-06-23T14:20:13.116Z,28.09
2019-06-23T14:22:42.614Z,27.92
2019-06-23T14:25:12.211Z,27.54
2019-06-23T14:27:41.726Z,27.49
2019-06-23T14:30:12.772Z,27.43
2019-06-23T14:32:42.356Z,27.45
2019-06-23T14:35:12.198Z,27.17
2019-06-23T14:37:41.843Z,27.09
2019-06-23T14:40:13.577Z,27.02
2019-06-23T14:42:43.085Z,26.98
2019-06-23T14:45:12.828Z,26.88
2019-06-23T14:47:42.340Z,26.96
2019-06-23T14:50:12.488Z,26.86
2019-06-23T14:52:42.014Z,26.84
2019-06-23T14:55:13.363Z,26.82
2019-06-23T14:57:42.886Z,26.83
2019-06-23T15:00:12.962Z,26.83
2019-06-23T15:02:42.619Z,26.80
2019-06-23T15:05:12.661Z,26.71
2019-06-23T15:07:42.184Z,26.83
2019-06-23T15:10:11.795Z,26.80
2019-06-23T15:12:41.316Z,26.70
2019-06-23T15:15:11.127Z,26.67
2019-06-23T15:17:40.690Z,26.68
2019-06-23T15:20:26.113Z,26.62
2019-06-23T15:22:42.179Z,26.60
2019-06-23T15:25:12.751Z,26.52
2019-06-23T15:27:42.275Z,26.46
2019-06-23T15:30:13.252Z,26.38
2019-06-23T15:32:42.767Z,26.32
2019-06-23T15:35:12.618Z,26.39
2019-06-23T15:37:42.146Z,26.45
2019-06-23T15:40:12.115Z,26.40
2019-06-23T15:42:41.698Z,26.39
2019-06-23T15:45:11.845Z,26.36
2019-06-23T15:47:41.478Z,26.31
2019-06-23T15:50:12.177Z,26.24
2019-06-23T15:52:41.779Z,26.22
2019-06-23T15:55:12.077Z,26.18
2019-06-23T15:57:41.564Z,26.16
2019-06-23T16:00:12.181Z,26.14
2019-06-23T16:02:41.702Z,26.18
2019-06-23T16:05:11.682Z,26.18
2019-06-23T16:07:41.186Z,26.30
2019-06-23T16:10:12.242Z,26.33
2019-06-23T16:12:41.756Z,26.26
2019-06-23T16:15:12.228Z,26.22
2019-06-23T16:17:41.809Z,26.30
2019-06-23T16:20:12.757Z,26.22
2019-06-23T16:22:42.278Z,26.15
2019-06-23T16:25:11.960Z,26.30
2019-06-23T16:27:41.745Z,26.36
2019-06-23T16:30:11.885Z,26.41
2019-06-23T16:32:44.289Z,26.32
2019-06-23T16:35:13.423Z,26.32
2019-06-23T16:37:42.934Z,26.23
2019-06-23T16:40:13.108Z,26.18
2019-06-23T16:42:42.631Z,26.13
2019-06-23T16:45:12.276Z,26.21
2019-06-23T16:47:41.822Z,26.18
2019-06-23T16:50:11.645Z,26.13
2019-06-23T16:52:51.223Z,26.24
2019-06-23T16:55:13.322Z,26.27
2019-06-23T16:57:43.143Z,26.24
2019-06-23T17:00:14.774Z,26.15
2019-06-23T17:02:44.324Z,26.14
2019-06-23T17:05:13.917Z,26.15
2019-06-23T17:07:43.526Z,26.13
2019-06-23T17:10:13.104Z,26.08
2019-06-23T17:12:49.711Z,26.21
2019-06-23T17:15:15.417Z,26.18
2019-06-23T17:17:44.943Z,26.13
2019-06-23T17:20:14.986Z,26.09
2019-06-23T17:22:44.518Z,26.09
2019-06-23T17:25:14.201Z,26.08
2019-06-23T17:27:43.740Z,26.07
2019-06-23T17:30:15.909Z,26.02
2019-06-23T17:32:45.486Z,25.97
2019-06-23T17:35:15.124Z,25.93
2019-06-23T17:37:44.668Z,25.91
2019-06-23T17:40:14.489Z,25.89
2019-06-23T17:42:44.031Z,25.82
2019-06-23T17:45:15.552Z,25.81
2019-06-23T17:47:45.082Z,25.77
2019-06-23T17:50:15.172Z,25.78
2019-06-23T17:52:44.999Z,25.74
2019-06-23T17:55:14.822Z,25.78
2019-06-23T17:57:44.432Z,25.75
2019-06-23T18:00:16.727Z,25.73
2019-06-23T18:02:46.271Z,25.67
2019-06-23T18:05:16.516Z,25.68
2019-06-23T18:07:46.491Z,25.66
2019-06-23T18:10:17.798Z,25.62
2019-06-23T18:12:47.332Z,25.59
2019-06-23T18:15:17.669Z,25.54
2019-06-23T18:17:47.184Z,25.50
2019-06-23T18:20:17.135Z,25.50
2019-06-23T18:22:46.686Z,25.49
2019-06-23T18:25:16.338Z,25.48
2019-06-23T18:27:45.874Z,25.45
2019-06-23T18:30:16.300Z,25.46
2019-06-23T18:32:45.842Z,25.43
2019-06-23T18:35:16.363Z,25.42
2019-06-23T18:37:46.243Z,25.39
2019-06-23T18:40:16.078Z,25.39
2019-06-23T18:42:45.689Z,25.32
2019-06-23T18:45:15.634Z,25.28
2019-06-23T18:47:45.486Z,25.28
2019-06-23T18:50:15.304Z,25.25
2019-06-23T18:52:44.845Z,25.21
2019-06-23T18:55:14.442Z,25.15
2019-06-23T18:57:43.985Z,25.09
2019-06-23T19:00:14.220Z,25.03
2019-06-23T19:02:43.820Z,24.96
2019-06-23T19:05:13.582Z,24.95
2019-06-23T19:07:43.177Z,24.94
2019-06-23T19:10:13.153Z,24.93
2019-06-23T19:12:43.472Z,24.92
2019-06-23T19:15:13.272Z,24.88
2019-06-23T19:17:42.804Z,24.84
2019-06-23T19:20:13.223Z,24.78
2019-06-23T19:22:42.911Z,24.75
2019-06-23T19:25:12.561Z,24.72
2019-06-23T19:27:42.388Z,24.67
2019-06-23T19:30:12.869Z,24.60
2019-06-23T19:32:42.533Z,24.53
2019-06-23T19:35:12.183Z,24.48
2019-06-23T19:37:41.857Z,24.38
2019-06-23T19:40:13.174Z,24.31
2019-06-23T19:42:43.269Z,24.24
2019-06-23T19:45:14.649Z,24.25
2019-06-23T19:47:44.388Z,24.05
2019-06-23T19:50:14.636Z,24.20
2019-06-23T19:52:44.772Z,24.12
2019-06-23T19:55:16.486Z,24.07
2019-06-23T19:57:46.301Z,23.98
2019-06-23T20:00:16.370Z,23.93
2019-06-23T20:02:46.051Z,23.91
2019-06-23T20:05:17.073Z,23.88
2019-06-23T20:07:46.686Z,23.86
2019-06-23T20:10:16.605Z,23.79
2019-06-23T20:12:46.257Z,23.77
2019-06-23T20:15:26.972Z,23.73
2019-06-23T20:17:47.565Z,23.64
2019-06-23T20:20:17.531Z,23.57
2019-06-23T20:22:47.111Z,23.46
2019-06-23T20:25:16.777Z,23.34
2019-06-23T20:27:46.354Z,23.32
2019-06-23T20:30:17.495Z,23.31
2019-06-23T20:32:47.174Z,23.25
2019-06-23T20:35:17.753Z,23.14
2019-06-23T20:37:47.312Z,23.10
2019-06-23T20:40:16.878Z,23.10
2019-06-23T20:42:46.393Z,23.09
2019-06-23T20:45:17.235Z,23.06
2019-06-23T20:47:46.887Z,23.05
2019-06-23T20:50:16.828Z,23.04
2019-06-23T20:52:46.351Z,23.00
2019-06-23T20:55:35.219Z,23.10
2019-06-23T20:58:05.062Z,23.04
2019-06-23T21:00:34.673Z,22.92
2019-06-23T21:03:04.183Z,22.82
2019-06-23T21:05:33.714Z,22.79
2019-06-23T21:08:03.303Z,22.64
2019-06-23T21:10:32.832Z,22.67
2019-06-23T21:13:02.339Z,22.62
2019-06-23T21:15:31.874Z,22.51
2019-06-23T21:18:01.391Z,22.49
2019-06-23T21:20:31.226Z,22.42
2019-06-23T21:23:00.789Z,22.32
2019-06-23T21:25:30.317Z,22.31
2019-06-23T21:27:59.897Z,22.28
2019-06-23T21:30:29.789Z,22.28
2019-06-23T21:33:02.039Z,22.24
2019-06-23T21:35:30.633Z,22.22
2019-06-23T21:38:00.305Z,22.20
2019-06-23T21:40:29.885Z,22.19
2019-06-23T21:42:59.467Z,22.16
2019-06-23T21:45:29.072Z,22.13
2019-06-23T21:47:58.653Z,22.16
2019-06-23T21:50:28.288Z,22.17
2019-06-23T21:52:57.810Z,22.16
2019-06-23T21:55:27.339Z,22.16
2019-06-23T21:57:56.872Z,22.17
2019-06-23T22:00:55.033Z,22.03
2019-06-23T22:03:24.617Z,21.99
2019-06-23T22:05:54.186Z,21.94
2019-06-23T22:08:23.747Z,21.92
2019-06-23T22:10:53.273Z,21.95
2019-06-23T22:13:22.957Z,21.96
2019-06-23T22:15:52.470Z,21.94
2019-06-23T22:18:21.990Z,21.90
2019-06-23T22:20:51.516Z,21.90
2019-06-23T22:23:21.032Z,21.89
2019-06-23T22:25:50.569Z,21.85
2019-06-23T22:28:21.315Z,21.76
2019-06-23T22:30:50.890Z,21.75
2019-06-23T22:33:20.403Z,21.71
2019-06-23T22:35:49.943Z,21.62
2019-06-23T22:38:19.445Z,21.62
2019-06-23T22:40:48.982Z,21.57
2019-06-23T22:43:18.482Z,21.58
2019-06-23T22:45:48.395Z,21.47
2019-06-23T22:48:18.111Z,21.37
2019-06-23T22:50:47.713Z,21.27
2019-06-23T22:53:17.224Z,21.29
2019-06-23T22:55:46.764Z,21.28
2019-06-23T22:58:16.263Z,21.34
2019-06-23T23:00:45.806Z,21.36
2019-06-23T23:03:15.317Z,21.36
2019-06-23T23:05:44.840Z,21.42
2019-06-23T23:08:14.355Z,21.09
2019-06-23T23:10:43.954Z,21.32
2019-06-23T23:13:13.462Z,21.28
2019-06-23T23:15:43.095Z,21.20
2019-06-23T23:18:12.728Z,21.17
2019-06-23T23:20:42.919Z,21.23
2019-06-23T23:23:12.429Z,21.25
2019-06-23T23:25:42.030Z,21.23
2019-06-23T23:28:11.543Z,21.22
2019-06-23T23:30:41.443Z,21.27
2019-06-23T23:33:11.286Z,21.26
2019-06-23T23:35:40.799Z,21.27
2019-06-23T23:38:10.715Z,21.26
2019-06-23T23:40:40.224Z,21.20
2019-06-23T23:43:09.762Z,21.18
2019-06-23T23:45:39.335Z,21.04
2019-06-23T23:48:08.934Z,21.00
2019-06-23T23:50:38.445Z,20.93
2019-06-23T23:53:08.055Z,21.00
2019-06-23T23:55:37.957Z,21.02
2019-06-23T23:58:07.561Z,21.05
